Time;durP1;ratioP1;P1;durP2;ratioP2;P2;SDS_P1;SDS_P2;PMS_P1;PMS_P2;Temp;Humidity;BMP_temperature;BMP_pressure;BME280_temperature;BME280_humidity;BME280_pressure;Samples;Min_cycle;Max_cycle;Signal;HPM_P1;HPM_P2
2023/05/30 00:01:20;;;;;;;10.75;6.30;;;19.30;99.90;;;;;;5033501;28;20033;-76
2023/05/30 00:03:46;;;;;;;11.45;6.32;;;19.20;99.90;;;;;;5033930;28;20037;-76
2023/05/30 00:06:13;;;;;;;7.35;5.68;;;19.20;99.90;;;;;;5033921;28;20030;-76
2023/05/30 00:08:40;;;;;;;11.93;6.18;;;19.20;99.90;;;;;;5034241;28;20033;-76
2023/05/30 00:11:07;;;;;;;8.40;6.18;;;19.20;99.90;;;;;;5033894;28;20029;-76
2023/05/30 00:13:33;;;;;;;6.88;5.25;;;19.10;99.90;;;;;;5033526;28;20049;-77
2023/05/30 00:16:00;;;;;;;10.05;6.60;;;19.10;99.90;;;;;;5034403;28;20045;-76
2023/05/30 00:18:34;;;;;;;9.00;6.47;;;19.00;99.90;;;;;;5033980;28;20030;-75
2023/05/30 00:21:03;;;;;;;11.20;6.57;;;18.90;99.90;;;;;;5033647;28;20029;-76
2023/05/30 00:23:30;;;;;;;11.82;5.95;;;19.00;99.90;;;;;;5033888;28;20029;-76
2023/05/30 00:25:57;;;;;;;13.60;6.53;;;18.90;99.90;;;;;;5034639;28;20368;-76
2023/05/30 00:28:23;;;;;;;8.38;5.88;;;18.90;99.90;;;;;;5034716;28;20374;-76
2023/05/30 00:30:49;;;;;;;12.10;6.57;;;18.90;99.90;;;;;;5032694;28;20040;-75
2023/05/30 00:33:16;;;;;;;11.38;6.40;;;18.70;99.90;;;;;;5016894;28;20042;-76
2023/05/30 00:35:42;;;;;;;13.02;6.63;;;18.80;99.90;;;;;;5032514;28;20074;-76
2023/05/30 00:38:08;;;;;;;12.25;6.38;;;18.80;99.90;;;;;;5033565;28;20026;-76
2023/05/30 00:40:34;;;;;;;11.85;6.30;;;18.80;99.90;;;;;;5033344;28;20036;-76
2023/05/30 00:43:00;;;;;;;11.95;6.13;;;18.70;99.90;;;;;;5033196;28;20032;-76
2023/05/30 00:45:26;;;;;;;16.08;6.38;;;18.70;99.90;;;;;;5033818;28;20041;-77
2023/05/30 00:47:53;;;;;;;11.40;6.50;;;18.60;99.90;;;;;;5026817;28;20041;-76
2023/05/30 00:50:19;;;;;;;15.32;6.53;;;18.70;99.90;;;;;;5051177;28;20401;-76
2023/05/30 00:52:47;;;;;;;10.43;6.20;;;18.60;99.90;;;;;;5033354;28;20032;-77
2023/05/30 00:55:13;;;;;;;11.00;6.25;;;18.60;99.90;;;;;;5033218;28;20394;-76
2023/05/30 00:57:40;;;;;;;10.73;6.50;;;18.60;99.90;;;;;;5034096;28;20030;-76
2023/05/30 01:00:06;;;;;;;11.40;6.38;;;18.60;99.90;;;;;;5032655;28;20356;-76
2023/05/30 01:02:33;;;;;;;15.93;6.95;;;18.60;99.90;;;;;;5032955;28;20044;-76
2023/05/30 01:05:02;;;;;;;12.35;6.50;;;18.50;99.90;;;;;;5049568;28;20036;-76
2023/05/30 01:07:29;;;;;;;10.90;6.13;;;18.40;99.90;;;;;;5065831;28;20482;-75
2023/05/30 01:09:55;;;;;;;10.57;6.15;;;18.40;99.90;;;;;;5032484;28;20037;-76
2023/05/30 01:12:25;;;;;;;9.50;5.70;;;18.30;99.90;;;;;;5048878;28;20048;-76
2023/05/30 01:14:59;;;;;;;11.93;6.47;;;18.20;99.90;;;;;;5033825;28;20513;-77
2023/05/30 01:18:01;;;;;;;19.90;7.45;;;18.20;99.90;;;;;;5032159;28;20045;-76
2023/05/30 01:20:29;;;;;;;13.88;6.35;;;18.30;99.90;;;;;;5032648;28;20101;-76
2023/05/30 01:23:02;;;;;;;11.57;6.95;;;18.30;99.90;;;;;;5032646;28;20029;-76
2023/05/30 01:25:54;;;;;;;6.47;5.40;;;18.20;99.90;;;;;;5031873;28;20048;-75
2023/05/30 01:28:22;;;;;;;9.98;6.03;;;18.10;99.90;;;;;;5023066;28;20041;-76
2023/05/30 01:30:50;;;;;;;14.65;5.93;;;17.90;99.90;;;;;;5033000;28;20037;-75
2023/05/30 01:33:17;;;;;;;9.13;5.95;;;17.90;99.90;;;;;;5032523;28;20033;-76
2023/05/30 01:35:46;;;;;;;11.95;6.45;;;17.90;99.90;;;;;;5032037;28;20044;-76
2023/05/30 01:38:12;;;;;;;10.93;6.45;;;18.00;99.90;;;;;;5032504;28;20037;-76
2023/05/30 01:40:39;;;;;;;15.95;6.75;;;18.00;99.90;;;;;;5015215;28;20041;-76
2023/05/30 01:43:20;;;;;;;15.68;6.85;;;18.00;99.90;;;;;;5032383;28;20029;-76
2023/05/30 01:46:04;;;;;;;12.48;6.53;;;17.90;99.90;;;;;;5031422;28;20030;-76
2023/05/30 01:48:45;;;;;;;11.38;6.10;;;17.80;99.90;;;;;;5047445;28;20045;-76
2023/05/30 01:51:14;;;;;;;11.25;6.18;;;17.70;99.90;;;;;;5043876;28;20074;-77
2023/05/30 01:53:43;;;;;;;12.65;5.88;;;17.70;99.90;;;;;;5031990;28;20021;-76
2023/05/30 01:56:09;;;;;;;10.93;6.40;;;17.70;99.90;;;;;;5031699;28;20470;-76
2023/05/30 01:58:35;;;;;;;9.60;5.65;;;17.60;99.90;;;;;;5032214;28;20037;-76
2023/05/30 02:01:02;;;;;;;11.38;5.93;;;17.60;99.90;;;;;;5014113;28;20034;-76
2023/05/30 02:03:29;;;;;;;10.55;5.63;;;17.50;99.90;;;;;;5027578;28;20025;-74
2023/05/30 02:05:55;;;;;;;11.20;5.93;;;17.50;99.90;;;;;;5052654;28;20013;-76
2023/05/30 02:08:21;;;;;;;13.43;6.03;;;17.50;99.90;;;;;;5022592;28;20355;-76
2023/05/30 02:10:47;;;;;;;12.43;6.53;;;17.50;99.90;;;;;;5042123;28;20026;-76
2023/05/30 02:13:13;;;;;;;10.38;6.55;;;17.50;99.90;;;;;;5030217;28;20057;-77
2023/05/30 02:15:40;;;;;;;13.60;6.38;;;17.60;99.90;;;;;;5033348;28;20041;-76
2023/05/30 02:18:06;;;;;;;9.65;6.05;;;17.60;99.90;;;;;;5030423;28;20033;-76
2023/05/30 02:20:32;;;;;;;8.50;5.93;;;17.60;99.90;;;;;;5029836;28;20475;-77
2023/05/30 02:22:58;;;;;;;7.90;5.68;;;17.50;99.90;;;;;;5029870;28;20026;-75
2023/05/30 02:25:25;;;;;;;8.73;6.82;;;17.40;99.90;;;;;;5030715;28;20029;-76
2023/05/30 02:27:51;;;;;;;16.90;7.05;;;17.30;99.90;;;;;;5031165;28;20476;-76
2023/05/30 02:30:17;;;;;;;11.55;7.20;;;17.30;99.90;;;;;;5029036;28;20048;-76
2023/05/30 02:32:43;;;;;;;11.35;7.15;;;17.30;99.90;;;;;;5013112;28;20034;-77
2023/05/30 02:35:10;;;;;;;7.10;6.40;;;17.20;99.90;;;;;;5029422;28;20048;-77
2023/05/30 02:37:36;;;;;;;12.40;7.22;;;17.30;99.90;;;;;;5047340;28;20025;-76
2023/05/30 02:40:02;;;;;;;14.52;7.40;;;17.10;99.90;;;;;;5031062;28;20033;-77
2023/05/30 02:42:30;;;;;;;8.60;6.60;;;17.10;99.90;;;;;;5030819;28;20383;-76
2023/05/30 02:44:56;;;;;;;10.68;6.15;;;17.00;99.90;;;;;;5032356;28;20037;-76
2023/05/30 02:47:22;;;;;;;13.40;6.78;;;16.90;99.90;;;;;;5033328;28;20067;-76
2023/05/30 02:49:48;;;;;;;10.82;5.88;;;16.90;99.90;;;;;;5052335;28;20032;-76
2023/05/30 02:52:14;;;;;;;9.27;6.55;;;16.90;99.90;;;;;;5033240;28;20032;-76
2023/05/30 02:54:40;;;;;;;9.48;6.85;;;16.90;99.90;;;;;;5030910;28;20398;-77
2023/05/30 02:57:07;;;;;;;10.60;7.03;;;16.80;99.90;;;;;;5031677;28;20029;-76
2023/05/30 02:59:33;;;;;;;10.45;6.63;;;16.70;99.90;;;;;;5030958;28;20037;-76
2023/05/30 03:01:59;;;;;;;12.15;5.78;;;16.60;99.90;;;;;;5030201;28;20518;-76
2023/05/30 03:04:25;;;;;;;8.52;5.38;;;16.60;99.90;;;;;;5031189;28;20485;-76
2023/05/30 03:06:51;;;;;;;13.75;5.82;;;16.50;99.90;;;;;;5032000;28;20033;-76
2023/05/30 03:09:17;;;;;;;10.52;6.05;;;16.50;99.90;;;;;;5031811;28;20505;-76
2023/05/30 03:11:43;;;;;;;14.63;6.07;;;16.50;99.90;;;;;;5014185;28;20038;-76
2023/05/30 03:14:10;;;;;;;10.55;5.93;;;16.50;99.90;;;;;;5032005;28;20044;-76
2023/05/30 03:16:36;;;;;;;8.18;5.47;;;16.50;99.90;;;;;;5046801;28;20038;-76
2023/05/30 03:19:02;;;;;;;15.15;6.38;;;16.50;99.90;;;;;;5030944;28;20022;-77
2023/05/30 03:21:28;;;;;;;11.25;6.38;;;16.40;99.90;;;;;;5030615;28;20037;-75
2023/05/30 03:23:54;;;;;;;13.07;5.95;;;16.40;99.90;;;;;;5030533;28;20021;-75
2023/05/30 03:26:20;;;;;;;10.70;5.85;;;16.40;99.90;;;;;;5030551;28;20038;-76
2023/05/30 03:28:46;;;;;;;13.63;7.22;;;16.50;99.90;;;;;;5030902;28;20026;-77
2023/05/30 03:31:12;;;;;;;17.00;7.40;;;16.40;99.90;;;;;;5029997;28;20085;-77
2023/05/30 03:33:38;;;;;;;19.95;6.03;;;16.30;99.90;;;;;;5030489;28;20029;-76
2023/05/30 03:36:06;;;;;;;12.73;5.90;;;16.30;99.90;;;;;;5014093;28;20402;-77
2023/05/30 03:38:32;;;;;;;12.32;5.95;;;16.30;99.90;;;;;;5030276;28;20359;-76
2023/05/30 03:40:58;;;;;;;15.15;7.13;;;16.30;99.90;;;;;;5029974;28;20049;-76
2023/05/30 03:43:25;;;;;;;12.70;5.78;;;16.20;99.90;;;;;;5030673;28;20390;-77
2023/05/30 03:45:51;;;;;;;12.43;6.43;;;16.20;99.90;;;;;;5031028;28;20034;-77
2023/05/30 03:48:17;;;;;;;11.95;5.95;;;16.20;99.90;;;;;;5044016;28;20477;-76
2023/05/30 03:50:43;;;;;;;9.65;5.28;;;16.10;99.90;;;;;;5046044;28;20040;-76
2023/05/30 03:53:09;;;;;;;15.88;6.00;;;16.10;99.90;;;;;;5030526;28;20393;-77
2023/05/30 03:55:35;;;;;;;14.70;5.63;;;16.00;99.90;;;;;;5030595;28;20458;-76
2023/05/30 03:58:01;;;;;;;13.60;5.78;;;16.00;99.90;;;;;;5030788;28;20030;-76
2023/05/30 04:00:27;;;;;;;15.57;6.15;;;16.00;99.90;;;;;;5031149;28;20500;-77
2023/05/30 04:02:53;;;;;;;15.05;6.72;;;15.90;99.90;;;;;;5030142;28;20033;-76
2023/05/30 04:05:20;;;;;;;13.70;5.90;;;15.90;99.90;;;;;;5029885;28;20033;-76
2023/05/30 04:07:47;;;;;;;14.10;5.90;;;15.90;99.90;;;;;;5030552;28;20036;-76
2023/05/30 04:10:13;;;;;;;10.73;6.10;;;15.90;99.90;;;;;;5031499;28;20462;-76
2023/05/30 04:12:40;;;;;;;10.38;5.50;;;15.90;99.90;;;;;;5034058;28;20033;-76
2023/05/30 04:15:06;;;;;;;12.30;5.95;;;15.80;99.90;;;;;;5033490;28;20426;-76
2023/05/30 04:17:32;;;;;;;11.77;6.30;;;15.80;99.90;;;;;;5033416;28;20493;-76
2023/05/30 04:19:59;;;;;;;13.30;6.20;;;15.70;99.90;;;;;;5016862;28;20037;-76
2023/05/30 04:22:25;;;;;;;11.65;5.78;;;15.70;99.90;;;;;;5034731;28;20524;-75
2023/05/30 04:24:51;;;;;;;12.30;6.32;;;15.70;99.90;;;;;;5033815;28;20029;-76
2023/05/30 04:27:17;;;;;;;12.40;5.47;;;15.60;99.90;;;;;;5033510;28;20489;-75
2023/05/30 04:29:43;;;;;;;11.00;5.78;;;15.50;99.90;;;;;;5033608;28;20045;-76
2023/05/30 04:32:09;;;;;;;16.35;6.05;;;15.50;99.90;;;;;;5032939;28;20402;-75
2023/05/30 04:34:37;;;;;;;13.15;6.82;;;15.60;99.90;;;;;;5033084;28;20033;-76
2023/05/30 04:37:04;;;;;;;11.60;5.47;;;15.50;99.90;;;;;;5016525;28;20042;-77
2023/05/30 04:39:30;;;;;;;20.42;6.45;;;15.40;99.90;;;;;;5033627;28;20032;-75
2023/05/30 04:41:56;;;;;;;12.68;6.10;;;15.40;99.90;;;;;;5033238;28;20025;-76
2023/05/30 04:44:23;;;;;;;14.52;6.32;;;15.30;99.90;;;;;;5034603;28;20360;-77
2023/05/30 04:46:49;;;;;;;13.02;6.43;;;15.30;99.90;;;;;;5033963;28;20057;-75
2023/05/30 04:49:16;;;;;;;11.75;5.95;;;15.30;99.90;;;;;;5052452;28;20040;-75
2023/05/30 04:51:43;;;;;;;12.98;6.13;;;15.30;99.90;;;;;;5040468;28;20026;-76
2023/05/30 04:54:09;;;;;;;21.02;6.47;;;15.40;99.90;;;;;;5034643;28;20033;-75
2023/05/30 04:56:35;;;;;;;14.63;6.38;;;15.40;99.90;;;;;;5032901;28;20470;-76
2023/05/30 04:59:01;;;;;;;13.15;7.03;;;15.40;99.90;;;;;;5034212;28;20030;-76
2023/05/30 05:01:28;;;;;;;10.73;5.95;;;15.30;99.90;;;;;;5033640;28;20038;-76
2023/05/30 05:03:54;;;;;;;16.45;7.03;;;15.20;99.90;;;;;;5032807;28;20025;-75
2023/05/30 05:06:20;;;;;;;12.25;6.00;;;15.20;99.90;;;;;;5032718;28;20033;-76
2023/05/30 05:08:46;;;;;;;20.77;6.25;;;15.20;99.90;;;;;;5033203;28;20382;-76
2023/05/30 05:11:14;;;;;;;12.98;5.90;;;15.20;99.90;;;;;;5032607;28;20044;-76
2023/05/30 05:13:40;;;;;;;18.20;6.47;;;15.40;99.90;;;;;;5032717;28;20026;-76
2023/05/30 05:16:06;;;;;;;13.43;5.53;;;15.50;99.90;;;;;;5048519;28;20517;-76
2023/05/30 05:18:32;;;;;;;11.40;5.07;;;15.60;99.90;;;;;;5033774;28;20025;-78
2023/05/30 05:20:58;;;;;;;10.85;5.70;;;15.70;99.90;;;;;;5048652;28;20037;-78
2023/05/30 05:23:26;;;;;;;13.48;6.20;;;15.70;99.90;;;;;;5049318;28;20474;-76
2023/05/30 05:25:52;;;;;;;14.70;6.65;;;15.70;99.90;;;;;;5033384;28;20033;-77
2023/05/30 05:28:19;;;;;;;14.38;6.80;;;15.70;99.90;;;;;;5033793;28;20029;-76
2023/05/30 05:30:48;;;;;;;12.60;6.25;;;15.90;99.90;;;;;;5031934;28;20041;-76
2023/05/30 05:33:15;;;;;;;15.18;5.10;;;16.00;99.90;;;;;;5032258;28;20036;-77
2023/05/30 05:35:41;;;;;;;15.23;4.80;;;16.00;99.90;;;;;;5015535;28;20075;-76
2023/05/30 05:38:07;;;;;;;15.95;6.25;;;16.00;99.90;;;;;;5032565;28;20377;-77
2023/05/30 05:40:33;;;;;;;15.52;5.68;;;15.90;99.90;;;;;;5033457;28;20029;-76
2023/05/30 05:42:59;;;;;;;16.20;6.18;;;16.00;99.90;;;;;;5032405;28;20033;-76
2023/05/30 05:45:25;;;;;;;11.45;5.18;;;16.00;99.90;;;;;;5031717;28;20026;-77
2023/05/30 05:47:52;;;;;;;14.00;5.57;;;16.10;99.90;;;;;;5041821;28;20045;-76
2023/05/30 05:50:18;;;;;;;12.65;6.15;;;16.10;99.90;;;;;;5050800;28;20017;-76
2023/05/30 05:52:44;;;;;;;18.00;6.35;;;16.30;99.90;;;;;;5032342;28;20033;-76
2023/05/30 05:55:10;;;;;;;14.38;7.18;;;16.40;99.90;;;;;;5031586;28;20056;-77
2023/05/30 05:57:36;;;;;;;11.98;6.25;;;16.50;99.90;;;;;;5033003;28;20497;-76
2023/05/30 06:00:05;;;;;;;12.32;5.88;;;16.70;99.90;;;;;;5033320;28;20040;-77
2023/05/30 06:02:32;;;;;;;12.27;6.70;;;16.70;99.90;;;;;;5028960;28;20041;-76
2023/05/30 06:04:58;;;;;;;16.58;5.95;;;16.70;99.90;;;;;;5032106;28;20033;-77
2023/05/30 06:07:24;;;;;;;15.18;5.57;;;16.70;99.90;;;;;;5014782;28;20048;-76
2023/05/30 06:09:50;;;;;;;15.82;6.05;;;16.90;99.90;;;;;;5015178;28;20037;-76
2023/05/30 06:12:16;;;;;;;12.07;5.80;;;17.00;99.90;;;;;;5031539;28;20037;-76
2023/05/30 06:14:42;;;;;;;11.30;5.15;;;17.00;99.90;;;;;;5031466;28;20037;-77
2023/05/30 06:17:08;;;;;;;14.30;5.63;;;17.00;99.90;;;;;;5031936;28;20048;-78
2023/05/30 06:19:34;;;;;;;10.65;5.00;;;16.90;99.90;;;;;;5031717;28;20034;-76
2023/05/30 06:22:00;;;;;;;17.10;6.10;;;16.90;99.90;;;;;;5032631;28;20029;-77
2023/05/30 06:24:26;;;;;;;13.85;6.20;;;16.90;99.90;;;;;;5031549;28;20021;-76
2023/05/30 06:26:53;;;;;;;9.85;4.65;;;17.10;99.90;;;;;;5032313;28;20029;-76
2023/05/30 06:29:19;;;;;;;7.95;4.70;;;17.30;99.90;;;;;;5031624;28;20029;-77
2023/05/30 06:31:45;;;;;;;14.07;6.15;;;17.30;99.90;;;;;;5031419;28;20033;-77
2023/05/30 06:34:11;;;;;;;12.05;6.13;;;17.40;99.90;;;;;;5031010;28;20390;-77
2023/05/30 06:36:37;;;;;;;14.13;5.85;;;17.50;99.90;;;;;;5031121;28;20045;-76
2023/05/30 06:39:03;;;;;;;13.52;5.68;;;17.70;99.90;;;;;;5032526;28;20386;-76
2023/05/30 06:41:29;;;;;;;11.25;5.80;;;17.90;99.90;;;;;;5031226;28;20037;-75
2023/05/30 06:43:55;;;;;;;13.93;6.38;;;17.90;99.90;;;;;;5014708;28;20029;-77
2023/05/30 06:46:22;;;;;;;9.60;5.55;;;18.20;99.90;;;;;;5030167;28;20037;-76
2023/05/30 06:48:48;;;;;;;12.60;6.00;;;18.20;99.90;;;;;;5049041;28;20028;-76
2023/05/30 06:51:14;;;;;;;16.27;6.15;;;18.20;99.90;;;;;;5058352;28;20041;-77
2023/05/30 06:53:40;;;;;;;12.48;5.45;;;18.20;99.90;;;;;;5030579;28;20026;-76
2023/05/30 06:56:07;;;;;;;15.98;6.47;;;18.00;99.90;;;;;;5047222;28;20044;-76
2023/05/30 06:58:33;;;;;;;14.57;6.30;;;18.10;99.90;;;;;;5047591;28;20066;-77
2023/05/30 07:00:59;;;;;;;14.27;6.05;;;18.00;99.90;;;;;;5039876;28;20034;-76
2023/05/30 07:03:26;;;;;;;16.70;6.07;;;17.90;99.90;;;;;;5027815;28;20030;-76
2023/05/30 07:05:52;;;;;;;15.77;6.13;;;18.20;99.90;;;;;;5044030;28;20042;-76
2023/05/30 07:08:18;;;;;;;10.10;5.97;;;18.50;99.90;;;;;;5044145;28;20585;-76
2023/05/30 07:10:45;;;;;;;15.93;6.93;;;18.50;99.90;;;;;;5044184;28;20034;-76
2023/05/30 07:13:11;;;;;;;14.32;6.28;;;18.60;99.90;;;;;;5027598;28;20076;-76
2023/05/30 07:15:37;;;;;;;11.93;5.85;;;18.70;99.90;;;;;;5023063;28;20041;-77
2023/05/30 07:18:03;;;;;;;12.82;6.72;;;18.80;99.90;;;;;;5012590;28;20026;-76
2023/05/30 07:20:29;;;;;;;15.82;6.50;;;18.80;99.90;;;;;;5030098;28;20030;-77
2023/05/30 07:22:55;;;;;;;15.30;6.00;;;19.00;99.90;;;;;;5030573;28;20402;-77
2023/05/30 07:25:21;;;;;;;12.13;6.28;;;19.10;99.90;;;;;;5030029;28;20049;-76
2023/05/30 07:27:47;;;;;;;12.90;6.55;;;19.10;99.90;;;;;;5047586;28;20459;-76
2023/05/30 07:30:13;;;;;;;14.80;6.70;;;19.20;99.90;;;;;;5029161;28;20048;-76
2023/05/30 07:32:39;;;;;;;11.30;5.57;;;19.50;99.90;;;;;;5039201;28;20034;-77
2023/05/30 07:35:06;;;;;;;12.65;6.22;;;19.60;99.90;;;;;;5012046;28;20386;-77
2023/05/30 07:37:34;;;;;;;10.70;6.28;;;19.70;99.90;;;;;;5046486;28;20033;-77
2023/05/30 07:40:05;;;;;;;17.92;6.50;;;19.60;99.90;;;;;;5030892;28;20374;-78
2023/05/30 07:42:32;;;;;;;12.25;5.85;;;19.60;99.90;;;;;;5030334;28;20397;-77
2023/05/30 07:44:58;;;;;;;12.73;5.80;;;19.70;99.90;;;;;;5033137;28;20032;-77
2023/05/30 07:47:25;;;;;;;10.20;5.82;;;19.90;99.90;;;;;;5041221;28;20053;-77
2023/05/30 07:49:51;;;;;;;15.55;6.28;;;20.00;99.90;;;;;;5054175;28;20493;-77
2023/05/30 07:52:17;;;;;;;11.50;6.63;;;20.10;99.90;;;;;;5036854;28;20029;-77
2023/05/30 07:54:43;;;;;;;9.13;5.50;;;20.20;99.50;;;;;;5034527;28;20044;-77
2023/05/30 07:57:12;;;;;;;12.05;6.03;;;20.10;99.80;;;;;;5033866;28;20053;-78
2023/05/30 07:59:41;;;;;;;9.93;5.60;;;20.10;99.90;;;;;;5035638;28;20018;-78
2023/05/30 08:02:07;;;;;;;14.10;6.32;;;20.20;99.50;;;;;;5033415;28;20044;-77
2023/05/30 08:04:33;;;;;;;13.43;6.45;;;20.30;99.70;;;;;;5034232;28;20387;-77
2023/05/30 08:06:59;;;;;;;9.48;5.43;;;20.20;99.70;;;;;;5017356;28;20042;-77
2023/05/30 08:09:25;;;;;;;9.80;6.13;;;20.20;99.50;;;;;;5034277;28;20022;-77
2023/05/30 08:11:52;;;;;;;13.50;6.45;;;20.40;99.90;;;;;;5033541;28;20029;-77
2023/05/30 08:14:18;;;;;;;13.18;7.25;;;20.40;99.30;;;;;;5033844;28;20021;-77
2023/05/30 08:16:44;;;;;;;9.10;6.15;;;20.50;99.10;;;;;;5033217;28;20049;-77
2023/05/30 08:19:11;;;;;;;12.15;6.50;;;20.40;99.10;;;;;;5035093;28;20029;-76
2023/05/30 08:21:37;;;;;;;12.27;6.55;;;20.40;99.10;;;;;;5033688;28;20033;-77
2023/05/30 08:24:03;;;;;;;13.32;6.90;;;20.50;99.40;;;;;;5035180;28;20041;-78
2023/05/30 08:26:32;;;;;;;12.40;7.07;;;20.70;99.30;;;;;;5034732;28;20355;-77
2023/05/30 08:28:58;;;;;;;11.23;6.60;;;20.90;98.80;;;;;;5035008;28;20029;-76
2023/05/30 08:31:24;;;;;;;13.48;6.60;;;21.00;98.90;;;;;;5033154;28;20406;-77
2023/05/30 08:33:50;;;;;;;11.10;7.05;;;21.10;98.50;;;;;;5034014;28;20029;-77
2023/05/30 08:36:17;;;;;;;16.65;7.35;;;21.40;98.60;;;;;;5033190;28;20041;-77
2023/05/30 08:38:43;;;;;;;11.05;7.32;;;21.60;98.20;;;;;;5034754;28;20026;-78
2023/05/30 08:41:09;;;;;;;13.57;7.75;;;21.60;97.70;;;;;;5032852;28;20036;-78
2023/05/30 08:43:36;;;;;;;12.35;7.25;;;21.50;98.00;;;;;;5033429;28;20029;-77
2023/05/30 08:46:02;;;;;;;16.00;7.60;;;21.50;97.70;;;;;;5032594;28;20042;-77
2023/05/30 08:48:29;;;;;;;14.35;6.72;;;21.40;97.90;;;;;;5048427;28;20036;-77
2023/05/30 08:50:55;;;;;;;13.88;7.03;;;21.50;98.10;;;;;;5046691;28;20033;-76
2023/05/30 08:53:32;;;;;;;11.93;7.55;;;21.60;97.70;;;;;;5033342;28;20477;-77
2023/05/30 08:56:01;;;;;;;16.88;7.40;;;21.70;97.90;;;;;;5031843;28;20041;-76
2023/05/30 08:58:36;;;;;;;10.80;7.72;;;21.90;97.50;;;;;;5033028;28;20044;-76
2023/05/30 09:01:02;;;;;;;14.55;7.18;;;22.00;97.30;;;;;;5032389;28;20060;-77
2023/05/30 09:03:32;;;;;;;15.43;7.82;;;21.90;97.40;;;;;;5033174;28;20029;-77
2023/05/30 09:05:58;;;;;;;10.90;7.43;;;22.10;97.50;;;;;;5032899;28;20044;-77
2023/05/30 09:08:25;;;;;;;16.02;8.23;;;22.20;97.10;;;;;;5032982;28;20470;-77
2023/05/30 09:10:52;;;;;;;13.40;7.85;;;22.20;96.70;;;;;;5016029;28;20045;-76
2023/05/30 09:13:18;;;;;;;12.68;8.10;;;22.20;96.80;;;;;;5016513;28;20037;-77
2023/05/30 09:15:45;;;;;;;12.20;7.70;;;22.30;96.90;;;;;;5031923;28;20038;-76
2023/05/30 09:18:11;;;;;;;13.55;8.20;;;22.20;96.90;;;;;;5032927;28;20026;-77
2023/05/30 09:20:38;;;;;;;13.73;8.13;;;22.30;96.70;;;;;;5032687;28;20033;-77
2023/05/30 09:23:04;;;;;;;12.55;7.70;;;22.30;96.80;;;;;;5032903;28;20029;-76
2023/05/30 09:25:44;;;;;;;13.40;8.18;;;22.30;96.70;;;;;;5033351;28;20029;-77
2023/05/30 09:28:11;;;;;;;14.15;8.00;;;22.60;96.80;;;;;;5032976;28;20025;-75
2023/05/30 09:31:04;;;;;;;11.45;7.95;;;22.80;96.40;;;;;;5032102;28;20069;-77
2023/05/30 09:33:51;;;;;;;9.00;8.10;;;22.90;96.40;;;;;;5029965;28;20064;-75
2023/05/30 09:36:18;;;;;;;14.90;8.45;;;22.80;96.40;;;;;;5032195;28;20470;-76
2023/05/30 09:38:55;;;;;;;12.77;7.20;;;22.80;96.40;;;;;;5032320;28;20373;-76
2023/05/30 09:41:25;;;;;;;14.70;8.02;;;22.60;96.30;;;;;;5032175;28;20382;-77
2023/05/30 09:43:53;;;;;;;15.43;8.30;;;22.80;96.80;;;;;;5032418;28;20041;-77
2023/05/30 09:46:26;;;;;;;12.93;8.38;;;23.00;96.20;;;;;;5031315;28;20076;-77
2023/05/30 09:48:52;;;;;;;11.82;9.23;;;23.20;96.20;;;;;;5034285;28;20519;-76
2023/05/30 09:51:20;;;;;;;13.45;8.60;;;23.40;95.70;;;;;;5042525;28;20033;-77
2023/05/30 09:54:03;;;;;;;14.10;8.93;;;23.40;95.50;;;;;;5031944;28;20022;-76
2023/05/30 09:56:36;;;;;;;16.45;8.90;;;23.50;95.60;;;;;;5031801;28;20500;-76
2023/05/30 09:59:06;;;;;;;12.45;8.90;;;23.60;95.70;;;;;;5032230;28;20029;-77
2023/05/30 10:01:46;;;;;;;18.20;8.70;;;23.40;95.60;;;;;;5031283;28;20041;-76
2023/05/30 10:04:16;;;;;;;14.60;8.93;;;23.30;96.00;;;;;;5032068;28;20138;-76
2023/05/30 10:06:54;;;;;;;12.27;9.60;;;23.50;95.40;;;;;;5032453;28;20509;-76
2023/05/30 10:09:21;;;;;;;13.85;8.55;;;23.50;95.30;;;;;;5031313;28;20039;-76
2023/05/30 10:11:47;;;;;;;11.43;7.97;;;23.70;95.10;;;;;;5015161;28;20036;-76
2023/05/30 10:14:13;;;;;;;15.85;9.38;;;23.70;95.40;;;;;;5031582;28;20034;-76
2023/05/30 10:17:04;;;;;;;12.10;9.30;;;23.70;95.10;;;;;;5030894;28;20049;-77
2023/05/30 10:19:42;;;;;;;13.40;10.07;;;23.70;95.20;;;;;;5032827;28;20030;-77
2023/05/30 10:22:08;;;;;;;12.20;10.18;;;23.90;95.10;;;;;;5016264;28;20037;-77
2023/05/30 10:24:34;;;;;;;17.05;9.75;;;24.00;95.00;;;;;;5014534;28;20509;-76
2023/05/30 10:27:03;;;;;;;11.35;9.13;;;24.10;94.50;;;;;;5031243;28;20395;-77
2023/05/30 10:29:43;;;;;;;11.63;8.50;;;24.10;94.60;;;;;;5031852;28;20029;-76
2023/05/30 10:32:09;;;;;;;12.35;9.50;;;24.00;94.90;;;;;;5031619;28;20033;-77
2023/05/30 10:34:41;;;;;;;14.90;9.55;;;24.00;94.60;;;;;;5015135;28;20038;-77
2023/05/30 10:37:07;;;;;;;14.90;9.10;;;24.20;95.10;;;;;;5014922;28;20048;-77
2023/05/30 10:39:39;;;;;;;10.77;9.68;;;24.30;94.50;;;;;;5031355;28;20472;-77
2023/05/30 10:42:10;;;;;;;11.05;8.73;;;24.30;94.80;;;;;;5030533;28;20052;-77
2023/05/30 10:45:12;;;;;;;13.85;9.82;;;24.40;94.30;;;;;;5031347;28;20022;-77
2023/05/30 10:47:49;;;;;;;14.32;10.25;;;24.30;94.30;;;;;;5027899;28;20049;-77
2023/05/30 10:50:27;;;;;;;11.45;9.43;;;24.50;94.30;;;;;;5050007;28;20029;-77
2023/05/30 10:52:55;;;;;;;12.90;10.45;;;24.50;93.90;;;;;;5031133;28;20037;-76
2023/05/30 10:55:21;;;;;;;13.23;10.23;;;24.50;94.00;;;;;;5015092;28;20026;-77
2023/05/30 10:57:47;;;;;;;14.20;9.93;;;24.70;93.70;;;;;;5032240;28;20386;-77
2023/05/30 11:00:27;;;;;;;11.60;9.25;;;24.80;93.50;;;;;;5030411;28;20025;-77
2023/05/30 11:02:54;;;;;;;14.68;10.00;;;24.60;93.40;;;;;;5031545;28;20033;-76
2023/05/30 11:05:30;;;;;;;12.27;9.40;;;24.50;93.60;;;;;;5014190;28;20041;-77
2023/05/30 11:07:58;;;;;;;9.60;8.65;;;24.70;93.60;;;;;;5031030;28;20391;-77
2023/05/30 11:10:25;;;;;;;16.48;10.73;;;24.90;93.50;;;;;;5030970;28;20033;-77
2023/05/30 11:12:52;;;;;;;11.45;8.38;;;24.80;93.40;;;;;;5014332;28;20398;-76
2023/05/30 11:15:31;;;;;;;13.02;9.93;;;25.00;94.10;;;;;;5030243;28;20481;-77
2023/05/30 11:17:57;;;;;;;12.57;10.30;;;25.20;93.30;;;;;;5031094;28;20171;-76
2023/05/30 11:20:23;;;;;;;13.18;9.40;;;25.20;92.70;;;;;;5017631;28;20034;-76
2023/05/30 11:23:01;;;;;;;12.88;9.52;;;25.10;93.40;;;;;;5034926;28;20029;-76
2023/05/30 11:25:29;;;;;;;11.10;9.98;;;25.30;93.30;;;;;;5034217;28;20033;-76
2023/05/30 11:28:05;;;;;;;12.70;9.75;;;25.20;92.90;;;;;;5035032;28;20382;-76
2023/05/30 11:30:37;;;;;;;11.25;9.55;;;25.20;93.20;;;;;;5035577;28;20485;-76
2023/05/30 11:33:04;;;;;;;12.30;9.77;;;25.20;93.00;;;;;;5034472;28;20417;-76
2023/05/30 11:35:31;;;;;;;14.00;9.63;;;25.30;92.60;;;;;;5017866;28;20048;-76
2023/05/30 11:37:57;;;;;;;12.13;10.20;;;25.30;92.70;;;;;;5051157;28;20049;-77
2023/05/30 11:40:24;;;;;;;16.25;11.20;;;25.40;92.90;;;;;;5034274;28;20041;-76
2023/05/30 11:42:53;;;;;;;10.73;9.73;;;25.60;92.50;;;;;;5034759;28;20040;-76
2023/05/30 11:45:23;;;;;;;14.55;9.65;;;25.50;92.20;;;;;;5033955;28;20021;-77
2023/05/30 11:47:49;;;;;;;12.02;10.15;;;25.40;92.30;;;;;;5044137;28;20529;-77
2023/05/30 11:50:15;;;;;;;13.57;9.60;;;25.40;92.60;;;;;;5053264;28;20036;-77
2023/05/30 11:52:42;;;;;;;13.88;10.60;;;25.60;92.80;;;;;;5034593;28;20029;-77
2023/05/30 11:55:08;;;;;;;13.60;9.80;;;25.80;91.90;;;;;;5017914;28;20409;-77
2023/05/30 11:57:34;;;;;;;10.30;9.23;;;25.80;92.20;;;;;;5034146;28;20064;-77
2023/05/30 12:00:00;;;;;;;10.20;8.93;;;25.90;92.00;;;;;;5034570;28;20498;-77
2023/05/30 12:02:27;;;;;;;12.02;9.77;;;26.00;91.90;;;;;;5033610;28;20049;-77
2023/05/30 12:05:03;;;;;;;13.27;9.70;;;26.10;92.20;;;;;;5033909;28;20032;-77
2023/05/30 12:07:29;;;;;;;12.63;10.40;;;26.20;91.40;;;;;;5017437;28;20053;-76
2023/05/30 12:09:55;;;;;;;10.68;9.57;;;26.00;91.30;;;;;;5017879;28;20029;-77
2023/05/30 12:12:21;;;;;;;12.10;10.07;;;25.80;92.00;;;;;;5033893;28;20033;-77
2023/05/30 12:14:49;;;;;;;10.85;9.73;;;26.00;92.10;;;;;;5034105;28;20386;-77
2023/05/30 12:17:18;;;;;;;11.50;10.35;;;26.10;92.20;;;;;;5034426;28;20041;-76
2023/05/30 12:19:44;;;;;;;12.10;10.93;;;26.20;91.20;;;;;;5017383;28;20017;-77
2023/05/30 12:22:11;;;;;;;10.73;9.82;;;26.20;91.10;;;;;;5017167;28;20033;-76
2023/05/30 12:24:37;;;;;;;11.05;10.02;;;26.00;91.20;;;;;;5035215;28;20032;-76
2023/05/30 12:27:05;;;;;;;13.07;10.13;;;25.90;91.10;;;;;;5017298;28;20041;-77
2023/05/30 12:29:35;;;;;;;11.30;9.07;;;25.90;91.30;;;;;;5017577;28;20030;-76
2023/05/30 12:32:01;;;;;;;10.85;9.68;;;25.90;91.70;;;;;;5032466;28;20391;-76
2023/05/30 12:34:45;;;;;;;10.82;9.30;;;26.00;91.40;;;;;;5033470;28;20036;-76
2023/05/30 12:37:14;;;;;;;10.50;9.40;;;26.10;91.00;;;;;;5001857;28;20056;-76
2023/05/30 12:40:07;;;;;;;10.93;9.73;;;25.90;91.20;;;;;;5034731;28;20025;-77
2023/05/30 12:42:33;;;;;;;12.27;8.85;;;25.90;91.20;;;;;;5033210;28;20053;-76